TimeCDT,TemperatureF,Dew PointF,Humidity,Sea Level PressureIn,VisibilityMPH,Wind Direction,Wind SpeedMPH,Gust SpeedMPH,PrecipitationIn,Events,Conditions,WindDirDegrees,DateUTC
12:53 AM,69.1,66.9,93,29.97,10.0,Calm,Calm,-,N/A,,Clear,0,2013-05-23 05:53:00
1:53 AM,66.9,66.0,97,29.96,6.0,SSW,3.5,-,N/A,,Clear,200,2013-05-23 06:53:00
2:53 AM,69.1,66.9,93,29.96,7.0,Calm,Calm,-,0.01,,Clear,0,2013-05-23 07:53:00
3:53 AM,66.0,64.9,96,29.97,10.0,Calm,Calm,-,N/A,,Clear,0,2013-05-23 08:53:00
4:53 AM,66.0,64.0,93,29.97,5.0,Calm,Calm,-,N/A,,Clear,0,2013-05-23 09:53:00
5:20 AM,64.4,64.4,100,29.99,7.0,Calm,Calm,-,N/A,,Scattered Clouds,0,2013-05-23 10:20:00
5:29 AM,64.4,64.4,100,30.00,8.0,Calm,Calm,-,N/A,,Mostly Cloudy,0,2013-05-23 10:29:00
5:38 AM,64.4,64.4,100,30.00,6.0,Calm,Calm,-,N/A,,Scattered Clouds,0,2013-05-23 10:38:00
5:45 AM,64.4,62.6,94,30.00,3.0,Calm,Calm,-,N/A,,Mostly Cloudy,0,2013-05-23 10:45:00
5:53 AM,64.0,63.0,96,29.99,3.0,Calm,Calm,-,N/A,,Mostly Cloudy,0,2013-05-23 10:53:00
6:53 AM,64.9,64.0,97,30.01,7.0,Calm,Calm,-,N/A,,Overcast,0,2013-05-23 11:53:00
7:19 AM,66.2,66.2,100,30.04,1.8,Calm,Calm,-,N/A,,Overcast,0,2013-05-23 12:19:00
7:27 AM,68.0,68.0,100,30.04,0.5,Calm,Calm,-,N/A,Fog,Fog,0,2013-05-23 12:27:00
7:39 AM,69.8,68.0,94,30.04,2.0,Calm,Calm,-,N/A,,Mostly Cloudy,0,2013-05-23 12:39:00
7:53 AM,71.1,69.1,93,30.03,5.0,Calm,Calm,-,N/A,,Mostly Cloudy,0,2013-05-23 12:53:00
8:00 AM,71.6,69.8,94,30.04,7.0,Calm,Calm,-,N/A,,Scattered Clouds,0,2013-05-23 13:00:00
8:53 AM,75.9,72.0,87,30.04,9.0,SSW,4.6,-,N/A,,Scattered Clouds,200,2013-05-23 13:53:00
9:06 AM,75.2,71.6,89,30.06,10.0,SSW,4.6,-,N/A,,Mostly Cloudy,200,2013-05-23 14:06:00
9:20 AM,75.2,71.6,89,30.06,10.0,South,3.5,-,N/A,,Mostly Cloudy,180,2013-05-23 14:20:00
9:29 AM,77.0,71.6,83,30.06,10.0,SSW,4.6,-,N/A,,Scattered Clouds,200,2013-05-23 14:29:00
9:53 AM,77.0,71.1,82,30.04,10.0,South,5.8,-,N/A,,Partly Cloudy,170,2013-05-23 14:53:00
10:21 AM,77.0,69.8,78,30.05,10.0,SW,4.6,-,N/A,,Mostly Cloudy,220,2013-05-23 15:21:00
10:48 AM,80.6,69.8,70,30.06,10.0,South,4.6,-,N/A,,Scattered Clouds,190,2013-05-23 15:48:00
10:53 AM,79.0,69.1,72,30.05,10.0,South,5.8,-,N/A,,Scattered Clouds,170,2013-05-23 15:53:00
11:53 AM,82.0,70.0,67,30.05,10.0,Variable,6.9,-,N/A,,Mostly Cloudy,0,2013-05-23 16:53:00
12:05 PM,80.6,69.8,70,30.07,10.0,WSW,4.6,-,N/A,,Mostly Cloudy,240,2013-05-23 17:05:00
12:34 PM,84.2,69.8,62,30.07,10.0,Calm,Calm,-,N/A,,Mostly Cloudy,0,2013-05-23 17:34:00
12:53 PM,82.0,66.9,60,30.05,10.0,Calm,Calm,-,N/A,,Mostly Cloudy,0,2013-05-23 17:53:00
1:53 PM,86.0,68.0,55,30.04,10.0,SW,6.9,-,N/A,,Partly Cloudy,230,2013-05-23 18:53:00
2:53 PM,86.0,68.0,55,30.02,10.0,SSW,5.8,-,N/A,,Partly Cloudy,200,2013-05-23 19:53:00
3:53 PM,87.1,69.1,55,30.01,10.0,West,5.8,-,N/A,,Partly Cloudy,260,2013-05-23 20:53:00
4:53 PM,87.1,68.0,53,29.99,10.0,West,6.9,-,N/A,,Clear,270,2013-05-23 21:53:00
5:53 PM,87.1,66.0,49,29.97,10.0,West,3.5,-,N/A,,Clear,280,2013-05-23 22:53:00
6:53 PM,82.9,71.1,67,29.99,10.0,Calm,Calm,-,N/A,,Clear,0,2013-05-23 23:53:00
7:53 PM,79.0,72.0,79,30.00,10.0,Calm,Calm,-,N/A,,Clear,0,2013-05-24 00:53:00
8:53 PM,75.9,72.0,87,30.01,10.0,Calm,Calm,-,N/A,,Clear,0,2013-05-24 01:53:00
9:53 PM,75.9,73.0,91,30.04,10.0,Calm,Calm,-,N/A,,Mostly Cloudy,0,2013-05-24 02:53:00
10:53 PM,75.9,72.0,87,30.06,10.0,WNW,8.1,-,N/A,,Scattered Clouds,290,2013-05-24 03:53:00
11:53 PM,75.0,68.0,79,30.04,10.0,Calm,Calm,-,N/A,,Clear,0,2013-05-24 04:53:00